Time;durP1;ratioP1;P1;durP2;ratioP2;P2;SDS_P1;SDS_P2;PMS_P1;PMS_P2;Temp;Humidity;BMP_temperature;BMP_pressure;BME280_temperature;BME280_humidity;BME280_pressure;Samples;Min_cycle;Max_cycle;Signal;HPM_P1;HPM_P2
2022/06/04 00:01:45;;;;;;;3.03;1.50;;;17.30;99.90;;;;;;5137423;27;20442;-79
2022/06/04 00:04:13;;;;;;;2.80;2.00;;;17.30;99.90;;;;;;5137301;27;20466;-79
2022/06/04 00:06:40;;;;;;;4.00;2.43;;;17.30;99.90;;;;;;5137327;27;20446;-79
2022/06/04 00:09:08;;;;;;;3.97;1.63;;;17.30;99.90;;;;;;5136958;27;20449;-79
2022/06/04 00:17:07;;;;;;;3.60;2.00;;;17.20;99.90;;;;;;5137154;27;20402;-79
2022/06/04 00:19:34;;;;;;;3.83;1.97;;;17.20;99.90;;;;;;5137066;27;20446;-79
2022/06/04 00:22:01;;;;;;;5.00;2.60;;;17.10;99.90;;;;;;5136714;27;20789;-79
2022/06/04 00:24:28;;;;;;;3.33;2.27;;;17.10;99.90;;;;;;5136884;27;20477;-79
2022/06/04 00:26:55;;;;;;;7.87;2.00;;;17.10;99.90;;;;;;5136949;27;20453;-79
2022/06/04 00:29:23;;;;;;;2.20;1.53;;;17.10;99.90;;;;;;5136569;27;20450;-79
2022/06/04 00:31:51;;;;;;;2.00;1.50;;;17.00;99.90;;;;;;5136819;27;20446;-79
2022/06/04 00:34:18;;;;;;;2.13;1.93;;;17.00;99.90;;;;;;5136252;27;20481;-79
2022/06/04 00:36:45;;;;;;;2.27;1.37;;;17.00;99.90;;;;;;5136758;27;20449;-79
2022/06/04 00:39:11;;;;;;;2.17;2.00;;;16.90;99.90;;;;;;5137166;27;20435;-79
2022/06/04 00:41:45;;;;;;;3.40;1.73;;;16.90;99.90;;;;;;5136328;27;20449;-79
2022/06/04 00:45:03;;;;;;;2.03;1.37;;;16.90;99.90;;;;;;5136112;27;20469;-79
2022/06/04 00:47:31;;;;;;;3.83;2.20;;;16.80;99.90;;;;;;5072934;28;20448;-79
2022/06/04 00:49:58;;;;;;;2.57;1.53;;;16.80;99.90;;;;;;5072914;28;20811;-79
2022/06/04 00:52:26;;;;;;;3.03;2.17;;;16.80;99.90;;;;;;5109333;27;20441;-79
2022/06/04 00:54:56;;;;;;;2.17;1.77;;;16.80;99.90;;;;;;5136292;27;20500;-79
2022/06/04 00:57:50;;;;;;;3.00;2.10;;;16.80;99.90;;;;;;5136408;27;20856;-79
2022/06/04 01:00:20;;;;;;;3.33;1.97;;;16.70;99.90;;;;;;5136007;27;20438;-79
2022/06/04 01:03:12;;;;;;;1.20;1.10;;;16.70;99.90;;;;;;5136128;27;20518;-79
2022/06/04 01:05:54;;;;;;;3.27;1.43;;;16.80;99.90;;;;;;5133554;27;20453;-79
2022/06/04 01:08:37;;;;;;;5.03;2.10;;;16.80;99.90;;;;;;5136166;27;20426;-79
2022/06/04 01:11:14;;;;;;;1.20;1.10;;;16.70;99.90;;;;;;5135827;27;20434;-79
2022/06/04 01:14:00;;;;;;;1.20;1.00;;;16.70;99.90;;;;;;5135994;27;20462;-79
2022/06/04 01:16:33;;;;;;;1.67;0.83;;;16.80;99.90;;;;;;5135904;27;20481;-79
2022/06/04 01:19:22;;;;;;;3.70;1.73;;;16.80;99.90;;;;;;5135908;27;20427;-79
2022/06/04 01:22:01;;;;;;;1.30;1.20;;;16.80;99.90;;;;;;5135924;27;20433;-79
2022/06/04 01:24:53;;;;;;;1.63;1.50;;;16.80;99.90;;;;;;5135771;27;20473;-79
2022/06/04 01:27:27;;;;;;;3.17;1.90;;;16.80;99.90;;;;;;5135490;27;20901;-79
2022/06/04 01:30:00;;;;;;;1.63;1.17;;;16.80;99.90;;;;;;5135746;27;20502;-79
2022/06/04 01:32:31;;;;;;;0.97;0.90;;;16.90;99.90;;;;;;5135596;27;20462;-79
2022/06/04 01:35:05;;;;;;;1.03;0.73;;;16.90;99.90;;;;;;5135185;27;20493;-79
2022/06/04 01:37:39;;;;;;;1.33;0.90;;;17.00;99.90;;;;;;5135309;27;20430;-79
2022/06/04 01:42:59;;;;;;;2.00;0.90;;;17.00;99.90;;;;;;5135190;27;20434;-79
2022/06/04 01:45:28;;;;;;;3.13;1.73;;;17.00;99.90;;;;;;5135193;27;20771;-79
2022/06/04 01:47:58;;;;;;;2.93;1.13;;;17.00;99.90;;;;;;5135344;27;20529;-79
2022/06/04 01:50:30;;;;;;;1.47;1.07;;;17.00;99.90;;;;;;5135012;27;20445;-79
2022/06/04 01:53:00;;;;;;;1.80;1.10;;;17.00;99.90;;;;;;5135208;27;20474;-79
2022/06/04 01:55:32;;;;;;;0.80;0.80;;;16.90;99.90;;;;;;5134954;27;20470;-79
2022/06/04 01:58:03;;;;;;;1.73;1.07;;;16.90;99.90;;;;;;5134786;27;20458;-79
2022/06/04 02:00:34;;;;;;;2.67;1.20;;;16.90;99.90;;;;;;5134862;27;20437;-79
2022/06/04 02:03:06;;;;;;;4.53;1.80;;;16.90;99.90;;;;;;5135002;27;20462;-79
2022/06/04 02:05:39;;;;;;;1.87;1.03;;;16.80;99.90;;;;;;5134804;27;20920;-79
2022/06/04 02:08:09;;;;;;;1.40;1.00;;;16.70;99.90;;;;;;5135556;27;20426;-79
2022/06/04 02:10:41;;;;;;;0.90;0.90;;;16.70;99.90;;;;;;5135008;27;20438;-79
2022/06/04 02:13:12;;;;;;;1.20;0.93;;;16.70;99.90;;;;;;5134867;27;20473;-79
2022/06/04 02:15:43;;;;;;;4.73;1.80;;;16.60;99.90;;;;;;5134823;27;20466;-79
2022/06/04 02:18:11;;;;;;;9.47;2.17;;;16.60;99.90;;;;;;5134837;27;20430;-79
2022/06/04 02:20:38;;;;;;;1.83;1.33;;;16.50;99.90;;;;;;5134781;27;20442;-79
2022/06/04 02:23:06;;;;;;;1.23;1.13;;;16.50;99.90;;;;;;5134696;27;20470;-79
2022/06/04 02:25:33;;;;;;;3.17;1.00;;;16.40;99.90;;;;;;5134700;27;20813;-79
2022/06/04 02:28:00;;;;;;;1.07;0.90;;;16.40;99.90;;;;;;5134347;27;20442;-79
2022/06/04 02:30:37;;;;;;;1.70;1.40;;;16.30;99.90;;;;;;5134618;27;20456;-79
2022/06/04 02:33:10;;;;;;;0.97;0.90;;;16.30;99.90;;;;;;5134273;27;20969;-79
2022/06/04 02:35:48;;;;;;;1.87;1.47;;;16.30;99.90;;;;;;5134097;27;20486;-79
2022/06/04 02:38:24;;;;;;;1.33;1.23;;;16.30;99.90;;;;;;5134246;27;20791;-79
2022/06/04 02:41:00;;;;;;;2.53;0.97;;;16.20;99.90;;;;;;5134246;27;20430;-79
2022/06/04 02:43:38;;;;;;;1.43;1.10;;;16.20;99.90;;;;;;5134452;27;20462;-79
2022/06/04 02:46:15;;;;;;;2.00;1.80;;;16.20;99.90;;;;;;5134172;27;20426;-79
2022/06/04 02:48:46;;;;;;;5.13;2.43;;;16.10;99.90;;;;;;5134495;27;20423;-79
2022/06/04 02:51:18;;;;;;;3.00;1.90;;;16.10;99.90;;;;;;5134441;27;20426;-79
2022/06/04 02:53:45;;;;;;;2.37;1.80;;;16.00;99.90;;;;;;5134017;27;20981;-79
2022/06/04 02:56:16;;;;;;;4.43;1.37;;;16.00;99.90;;;;;;5134238;28;20520;-79
2022/06/04 02:58:47;;;;;;;4.90;2.50;;;16.00;99.90;;;;;;5134387;27;20441;-78
2022/06/04 03:01:17;;;;;;;2.30;1.60;;;16.00;99.90;;;;;;5134615;27;20445;-78
2022/06/04 03:03:44;;;;;;;1.57;1.30;;;15.90;99.90;;;;;;5134280;27;20458;-79
2022/06/04 03:06:23;;;;;;;1.53;1.43;;;15.90;99.90;;;;;;5134366;27;20446;-79
2022/06/04 03:08:50;;;;;;;1.47;1.33;;;15.80;99.90;;;;;;5137490;27;20438;-79
2022/06/04 03:11:17;;;;;;;1.37;1.03;;;15.80;99.90;;;;;;5138401;27;20446;-79
2022/06/04 03:13:45;;;;;;;1.73;1.47;;;15.80;99.90;;;;;;5138365;27;20466;-79
2022/06/04 03:16:12;;;;;;;1.80;1.70;;;15.80;99.90;;;;;;5137964;27;20477;-79
2022/06/04 03:18:40;;;;;;;3.73;1.70;;;15.80;99.90;;;;;;5138274;27;20442;-79
2022/06/04 03:21:07;;;;;;;2.40;1.77;;;15.90;99.90;;;;;;5137983;27;20917;-79
2022/06/04 03:23:34;;;;;;;5.80;1.20;;;15.90;99.90;;;;;;5138143;27;20827;-79
2022/06/04 03:26:01;;;;;;;5.30;2.10;;;15.90;99.90;;;;;;5137813;27;20817;-79
2022/06/04 03:28:27;;;;;;;1.07;1.00;;;15.90;99.90;;;;;;5138091;27;20450;-79
2022/06/04 03:30:54;;;;;;;1.43;1.03;;;15.90;99.90;;;;;;5138007;27;20449;-79
2022/06/04 03:33:21;;;;;;;1.17;0.90;;;15.90;99.90;;;;;;5137943;27;20469;-79
2022/06/04 03:35:49;;;;;;;0.90;0.70;;;15.90;99.90;;;;;;5137452;27;20495;-79
2022/06/04 03:38:16;;;;;;;0.60;0.60;;;16.00;99.90;;;;;;5137901;27;20446;-79
2022/06/04 03:40:42;;;;;;;1.67;0.93;;;16.10;99.90;;;;;;5137859;27;20450;-79
2022/06/04 03:43:09;;;;;;;1.23;0.90;;;16.20;99.90;;;;;;5137755;27;20458;-79
2022/06/04 03:45:36;;;;;;;1.13;1.00;;;16.30;99.90;;;;;;5137787;27;20805;-79
2022/06/04 03:48:03;;;;;;;1.00;0.90;;;16.40;99.90;;;;;;5137720;27;20448;-79
2022/06/04 03:50:32;;;;;;;2.63;1.43;;;16.50;99.90;;;;;;5137442;27;20434;-79
2022/06/04 03:53:00;;;;;;;1.53;1.10;;;16.60;99.90;;;;;;5137513;27;20470;-79
2022/06/04 03:55:27;;;;;;;1.27;1.03;;;16.60;99.90;;;;;;5137187;27;21008;-79
2022/06/04 03:57:54;;;;;;;1.37;0.87;;;16.60;99.90;;;;;;5137519;27;20449;-79
2022/06/04 04:00:23;;;;;;;0.90;0.90;;;16.60;99.90;;;;;;5137442;27;20452;-79
2022/06/04 04:02:52;;;;;;;1.10;0.87;;;16.60;99.90;;;;;;5137344;27;20461;-79
2022/06/04 04:05:22;;;;;;;1.50;0.97;;;16.60;99.90;;;;;;5137380;27;20450;-79
2022/06/04 04:07:49;;;;;;;1.10;1.00;;;16.60;99.90;;;;;;5137321;27;20446;-79
2022/06/04 04:10:18;;;;;;;1.73;1.63;;;16.60;99.90;;;;;;5137296;27;20453;-79
2022/06/04 04:12:45;;;;;;;2.03;1.60;;;16.60;99.90;;;;;;5136860;27;20964;-79
2022/06/04 04:15:13;;;;;;;0.87;0.87;;;16.60;99.90;;;;;;5137176;27;20446;-79
2022/06/04 04:17:41;;;;;;;1.70;0.70;;;16.60;99.90;;;;;;5136892;27;20812;-79
2022/06/04 04:20:10;;;;;;;4.80;1.27;;;16.60;99.90;;;;;;5136222;27;20489;-79
2022/06/04 04:22:37;;;;;;;0.70;0.70;;;16.70;99.90;;;;;;5137063;27;20477;-79
2022/06/04 04:25:05;;;;;;;1.17;0.87;;;16.80;99.90;;;;;;5136993;27;20443;-79
2022/06/04 04:27:33;;;;;;;1.37;1.27;;;16.80;99.90;;;;;;5136945;27;20446;-79
2022/06/04 04:30:00;;;;;;;1.00;0.70;;;16.80;99.90;;;;;;5136598;27;20948;-79
2022/06/04 04:32:27;;;;;;;0.97;0.73;;;16.90;99.90;;;;;;5136506;27;20465;-79
2022/06/04 04:34:54;;;;;;;3.17;0.83;;;17.00;99.90;;;;;;5136413;27;20534;-79
2022/06/04 04:37:20;;;;;;;0.63;0.63;;;17.10;99.90;;;;;;5136222;27;20992;-79
2022/06/04 04:39:47;;;;;;;1.47;0.97;;;17.20;99.90;;;;;;5136577;27;20449;-79
2022/06/04 04:42:14;;;;;;;1.23;1.13;;;17.30;99.90;;;;;;5136618;27;20805;-79
2022/06/04 04:44:42;;;;;;;0.90;0.80;;;17.40;99.90;;;;;;5136658;27;20451;-79
2022/06/04 04:47:09;;;;;;;1.60;1.10;;;17.50;99.90;;;;;;5136575;27;20442;-79
2022/06/04 04:49:36;;;;;;;0.80;0.80;;;17.50;99.90;;;;;;5136288;27;20435;-79
2022/06/04 04:52:03;;;;;;;1.77;1.07;;;17.60;99.90;;;;;;5136491;27;20446;-79
2022/06/04 04:54:31;;;;;;;0.87;0.83;;;17.60;99.90;;;;;;5136342;27;20465;-79
2022/06/04 04:56:57;;;;;;;0.87;0.87;;;17.60;99.90;;;;;;5135987;27;21000;-79
2022/06/04 04:59:24;;;;;;;1.30;1.00;;;17.60;99.90;;;;;;5136347;27;20446;-79
2022/06/04 05:01:52;;;;;;;1.67;1.57;;;17.60;99.90;;;;;;5136301;27;20453;-79
2022/06/04 05:04:20;;;;;;;0.90;0.80;;;17.50;99.90;;;;;;5136136;27;20470;-79
2022/06/04 05:06:47;;;;;;;2.60;1.10;;;17.60;99.90;;;;;;5136218;27;20470;-79
2022/06/04 05:09:14;;;;;;;2.30;1.43;;;17.60;99.90;;;;;;5136163;27;20457;-79
2022/06/04 05:11:42;;;;;;;1.80;1.17;;;17.70;99.90;;;;;;5136139;27;20444;-79
2022/06/04 05:14:08;;;;;;;1.77;1.00;;;17.70;99.90;;;;;;5135669;27;20470;-79
2022/06/04 05:16:37;;;;;;;1.57;1.23;;;17.70;99.90;;;;;;5135942;27;20838;-79
2022/06/04 05:19:06;;;;;;;3.40;1.60;;;17.70;99.90;;;;;;5135748;27;20433;-79
2022/06/04 05:21:41;;;;;;;2.10;1.23;;;17.70;99.90;;;;;;5135597;27;20442;-79
2022/06/04 05:24:11;;;;;;;1.37;1.23;;;17.70;99.90;;;;;;5135903;27;20518;-79
2022/06/04 05:26:37;;;;;;;1.17;0.70;;;17.70;99.90;;;;;;5136084;27;20454;-77
2022/06/04 05:29:04;;;;;;;3.20;1.77;;;17.70;99.90;;;;;;5135437;27;20948;-76
2022/06/04 05:31:31;;;;;;;1.00;0.80;;;17.70;99.90;;;;;;5135645;27;20445;-76
2022/06/04 05:33:58;;;;;;;1.20;1.10;;;17.70;99.90;;;;;;5135336;27;20478;-77
2022/06/04 05:36:26;;;;;;;0.70;0.60;;;17.70;99.90;;;;;;5135605;27;20466;-77
2022/06/04 05:38:52;;;;;;;1.47;1.37;;;17.70;99.90;;;;;;5135261;27;20791;-78
2022/06/04 05:41:19;;;;;;;1.20;1.10;;;17.70;99.90;;;;;;5135595;27;20446;-77
2022/06/04 05:43:46;;;;;;;1.00;0.90;;;17.70;99.90;;;;;;5135544;27;20471;-77
2022/06/04 05:46:15;;;;;;;2.03;0.83;;;17.70;99.90;;;;;;5135443;27;20434;-77
2022/06/04 05:48:43;;;;;;;1.63;1.13;;;17.70;99.90;;;;;;5135398;27;20452;-77
2022/06/04 05:51:11;;;;;;;1.70;1.10;;;17.80;99.90;;;;;;5135348;27;20442;-78
2022/06/04 05:53:39;;;;;;;1.60;1.10;;;17.80;99.90;;;;;;5134913;27;20977;-78
2022/06/04 05:56:12;;;;;;;1.70;1.40;;;17.70;99.90;;;;;;5134845;27;21009;-77
2022/06/04 05:58:39;;;;;;;3.33;1.33;;;17.70;99.90;;;;;;5134853;27;20427;-78
2022/06/04 06:01:06;;;;;;;1.70;1.07;;;17.60;99.90;;;;;;5135103;27;20442;-78
2022/06/04 06:03:33;;;;;;;1.47;1.37;;;17.50;99.90;;;;;;5135028;27;20462;-79
2022/06/04 06:06:01;;;;;;;1.60;1.00;;;17.40;99.90;;;;;;5134784;27;20792;-78
2022/06/04 06:08:28;;;;;;;5.27;1.30;;;17.20;99.90;;;;;;5135090;27;20503;-77
2022/06/04 06:10:57;;;;;;;2.10;1.10;;;17.10;99.90;;;;;;5134708;27;20450;-78
2022/06/04 06:13:24;;;;;;;2.47;0.77;;;17.00;99.90;;;;;;5134608;27;20973;-78
2022/06/04 06:15:50;;;;;;;1.57;1.47;;;16.90;99.90;;;;;;5134923;27;20450;-78
2022/06/04 06:18:17;;;;;;;2.43;1.40;;;16.80;99.90;;;;;;5134838;27;20432;-79
2022/06/04 06:20:44;;;;;;;1.03;0.97;;;16.80;99.90;;;;;;5134838;27;20442;-78
2022/06/04 06:23:11;;;;;;;3.13;2.80;;;16.80;99.90;;;;;;5134681;27;20518;-79
2022/06/04 06:25:38;;;;;;;4.47;0.80;;;16.70;99.90;;;;;;5134679;27;20837;-79
2022/06/04 06:28:07;;;;;;;6.53;1.63;;;16.70;99.90;;;;;;5134729;27;20777;-79
2022/06/04 06:30:34;;;;;;;0.97;0.90;;;16.70;99.90;;;;;;5134651;27;20450;-79
2022/06/04 06:33:01;;;;;;;1.10;0.97;;;16.60;99.90;;;;;;5134595;27;20462;-79
2022/06/04 06:35:28;;;;;;;0.90;0.90;;;16.60;99.90;;;;;;5134268;27;20454;-80
2022/06/04 06:37:55;;;;;;;2.67;1.17;;;16.60;99.90;;;;;;5134545;27;20477;-79
2022/06/04 06:40:22;;;;;;;1.77;1.67;;;16.60;99.90;;;;;;5134558;27;20801;-76
2022/06/04 06:42:49;;;;;;;1.03;0.93;;;16.60;99.90;;;;;;5133723;27;20860;-79
2022/06/04 06:45:18;;;;;;;1.00;0.90;;;16.70;99.90;;;;;;5134324;27;20403;-79
2022/06/04 06:47:45;;;;;;;2.23;1.00;;;16.70;99.90;;;;;;5134331;27;20430;-79
2022/06/04 06:50:14;;;;;;;0.80;0.80;;;16.70;99.90;;;;;;5135552;27;20519;-78
2022/06/04 06:52:41;;;;;;;2.20;1.10;;;16.80;99.90;;;;;;5134258;27;20463;-78
2022/06/04 06:55:09;;;;;;;2.10;1.13;;;16.80;99.90;;;;;;5134404;27;20426;-78
2022/06/04 06:57:35;;;;;;;0.60;0.60;;;16.80;99.90;;;;;;5134328;27;20473;-79
2022/06/04 07:00:04;;;;;;;0.80;0.80;;;16.80;99.90;;;;;;5134665;27;20430;-78
2022/06/04 07:02:32;;;;;;;1.47;0.80;;;16.80;99.90;;;;;;5134306;27;20564;-78
2022/06/04 07:04:59;;;;;;;1.10;0.83;;;16.90;99.90;;;;;;5134319;27;20450;-78
2022/06/04 07:07:25;;;;;;;0.97;0.70;;;16.90;99.90;;;;;;5134034;27;20805;-78
2022/06/04 07:09:54;;;;;;;1.07;0.70;;;16.90;99.90;;;;;;5134303;27;20457;-78
2022/06/04 07:12:21;;;;;;;1.30;1.07;;;17.00;99.90;;;;;;5133907;27;20457;-79
2022/06/04 07:14:48;;;;;;;1.37;1.10;;;17.00;99.90;;;;;;5134192;27;20455;-79
2022/06/04 07:17:15;;;;;;;1.40;1.30;;;17.20;99.90;;;;;;5133832;27;21004;-79
2022/06/04 07:19:43;;;;;;;1.00;0.90;;;17.40;99.90;;;;;;5134130;27;20817;-78
2022/06/04 07:22:10;;;;;;;0.90;0.90;;;17.60;99.90;;;;;;5133804;27;20950;-79
2022/06/04 07:24:37;;;;;;;1.23;1.10;;;17.90;99.90;;;;;;5134130;27;20446;-79
2022/06/04 07:27:05;;;;;;;1.00;0.90;;;18.10;99.90;;;;;;5134063;27;20442;-79
2022/06/04 07:29:31;;;;;;;2.13;1.10;;;18.20;99.90;;;;;;5134056;27;20469;-79
2022/06/04 07:31:58;;;;;;;1.47;1.37;;;18.20;99.90;;;;;;5133707;27;20814;-79
2022/06/04 07:34:25;;;;;;;2.20;1.00;;;18.20;99.90;;;;;;5133634;27;20491;-79
2022/06/04 07:36:54;;;;;;;3.20;1.37;;;18.20;99.90;;;;;;5133777;27;20559;-79
2022/06/04 07:39:21;;;;;;;2.10;1.40;;;18.30;99.90;;;;;;5133949;27;20450;-79
2022/06/04 07:41:52;;;;;;;1.20;1.10;;;18.30;99.90;;;;;;5133949;27;20468;-79
2022/06/04 07:44:19;;;;;;;1.20;1.13;;;18.40;99.90;;;;;;5133954;27;20470;-80
2022/06/04 07:46:47;;;;;;;1.80;1.23;;;18.50;99.90;;;;;;5134289;27;20449;-80
2022/06/04 07:49:15;;;;;;;7.73;1.57;;;18.70;99.90;;;;;;5133856;27;20450;-79
2022/06/04 07:51:44;;;;;;;2.60;1.13;;;18.90;99.90;;;;;;5133816;27;20442;-79
2022/06/04 07:54:12;;;;;;;2.00;1.30;;;19.10;99.90;;;;;;5133978;27;20467;-79
2022/06/04 07:56:39;;;;;;;1.90;1.30;;;19.30;99.90;;;;;;5137152;27;20941;-79
2022/06/04 07:59:11;;;;;;;2.03;1.40;;;19.60;99.90;;;;;;5137225;27;20968;-79
2022/06/04 08:01:38;;;;;;;2.10;2.00;;;20.20;99.90;;;;;;5138220;27;20445;-79
2022/06/04 08:04:05;;;;;;;1.67;1.43;;;20.80;99.90;;;;;;5137381;27;20468;-80
2022/06/04 08:06:33;;;;;;;1.17;1.00;;;21.20;99.90;;;;;;5137382;27;20204;-79
2022/06/04 08:09:00;;;;;;;1.55;1.23;;;21.70;99.90;;;;;;5137303;27;20210;-79
2022/06/04 08:11:32;;;;;;;5.28;1.50;;;21.80;99.90;;;;;;5137315;27;20286;-80
2022/06/04 08:13:59;;;;;;;1.40;1.30;;;21.60;99.90;;;;;;5137264;27;20223;-79
2022/06/04 08:16:27;;;;;;;1.10;1.00;;;21.20;99.90;;;;;;5136957;27;20199;-79
2022/06/04 08:18:53;;;;;;;4.03;1.33;;;20.90;99.90;;;;;;5137201;27;20223;-79
2022/06/04 08:21:20;;;;;;;2.10;1.57;;;20.70;99.90;;;;;;5137103;27;20239;-79
2022/06/04 08:23:47;;;;;;;1.47;1.20;;;20.80;99.90;;;;;;5137021;27;20223;-79
2022/06/04 08:26:14;;;;;;;3.67;1.40;;;20.90;99.90;;;;;;5137008;27;20203;-79
2022/06/04 08:28:42;;;;;;;1.23;1.10;;;21.00;99.90;;;;;;5136954;27;20192;-79
2022/06/04 08:31:11;;;;;;;1.17;1.00;;;21.00;99.90;;;;;;5136581;27;20675;-79
2022/06/04 08:33:39;;;;;;;1.10;0.90;;;21.00;99.90;;;;;;5136588;27;20255;-79
2022/06/04 08:36:08;;;;;;;1.85;1.30;;;21.20;99.90;;;;;;5136902;27;20184;-79
2022/06/04 08:38:35;;;;;;;1.20;1.10;;;21.60;99.90;;;;;;5136397;27;20702;-79
2022/06/04 08:41:05;;;;;;;1.95;1.58;;;22.10;99.90;;;;;;5136748;27;20200;-79
2022/06/04 08:43:40;;;;;;;3.25;1.55;;;22.60;99.90;;;;;;5136623;27;20220;-79
2022/06/04 08:46:27;;;;;;;1.08;0.95;;;23.10;99.90;;;;;;5136692;27;20266;-79
2022/06/04 08:48:57;;;;;;;1.67;1.40;;;23.30;99.90;;;;;;5136685;27;20180;-78
2022/06/04 08:51:26;;;;;;;1.40;1.30;;;23.20;99.90;;;;;;5136194;27;20561;-78
2022/06/04 08:53:55;;;;;;;1.63;1.52;;;23.40;99.90;;;;;;5136332;27;20224;-79
2022/06/04 08:59:20;;;;;;;4.13;1.70;;;23.40;99.90;;;;;;5136135;27;20191;-79
2022/06/04 09:01:54;;;;;;;2.85;1.73;;;23.50;99.90;;;;;;5136394;27;20184;-78
2022/06/04 09:04:35;;;;;;;1.88;1.30;;;23.30;99.90;;;;;;5136213;27;20223;-78
2022/06/04 09:07:08;;;;;;;1.15;1.05;;;23.50;99.90;;;;;;5135517;27;20535;-78
2022/06/04 09:09:40;;;;;;;0.88;0.88;;;23.70;99.90;;;;;;5135980;27;20177;-78
2022/06/04 09:12:26;;;;;;;1.15;1.02;;;23.70;99.90;;;;;;5136250;27;20180;-78
2022/06/04 09:14:58;;;;;;;1.00;1.00;;;23.60;99.90;;;;;;5136817;27;20204;-78
2022/06/04 09:17:35;;;;;;;2.15;1.58;;;23.60;99.90;;;;;;5135974;27;20223;-77
2022/06/04 09:20:09;;;;;;;1.33;1.23;;;23.60;99.90;;;;;;5136038;27;20184;-78
2022/06/04 09:22:42;;;;;;;1.42;1.33;;;23.70;99.90;;;;;;5136596;27;20226;-78
2022/06/04 09:25:13;;;;;;;1.48;1.38;;;23.80;99.90;;;;;;5135963;27;20200;-78
2022/06/04 09:27:46;;;;;;;1.30;1.20;;;23.90;99.90;;;;;;5135922;27;20187;-78
2022/06/04 09:30:21;;;;;;;1.75;1.65;;;24.00;99.90;;;;;;5135518;27;20643;-78
2022/06/04 09:33:04;;;;;;;1.77;1.58;;;23.90;99.90;;;;;;5135712;27;20223;-78
2022/06/04 09:35:37;;;;;;;2.15;1.70;;;23.70;99.90;;;;;;5135295;27;20232;-78
2022/06/04 09:38:04;;;;;;;1.70;1.25;;;23.60;99.90;;;;;;5135559;27;20299;-78
2022/06/04 09:40:33;;;;;;;1.67;1.27;;;23.40;99.90;;;;;;5135558;27;20204;-78
2022/06/04 09:43:08;;;;;;;1.08;1.05;;;23.30;99.90;;;;;;5135173;27;20726;-78
2022/06/04 09:45:35;;;;;;;2.13;1.20;;;23.20;99.90;;;;;;5135484;27;20195;-78
2022/06/04 09:48:15;;;;;;;2.08;1.30;;;23.20;99.90;;;;;;5135384;27;20203;-78
2022/06/04 09:50:50;;;;;;;0.90;0.90;;;23.10;99.90;;;;;;5135421;27;20183;-77
2022/06/04 09:53:21;;;;;;;2.40;1.50;;;22.90;99.90;;;;;;5135355;27;20223;-78
2022/06/04 09:55:50;;;;;;;2.27;1.23;;;22.80;99.90;;;;;;5135337;27;20189;-77
2022/06/04 09:58:20;;;;;;;1.50;1.17;;;22.70;99.90;;;;;;5135218;27;20226;-77
2022/06/04 10:00:57;;;;;;;1.43;1.10;;;22.70;99.90;;;;;;5135241;27;20196;-77
2022/06/04 10:03:25;;;;;;;1.73;1.63;;;22.60;99.90;;;;;;5134831;27;20465;-78
2022/06/04 10:06:01;;;;;;;1.87;1.77;;;22.50;99.90;;;;;;5135170;27;20200;-78
2022/06/04 10:08:29;;;;;;;1.40;1.30;;;22.40;99.90;;;;;;5135090;27;20184;-78
2022/06/04 10:10:59;;;;;;;1.97;1.30;;;22.30;99.90;;;;;;5135298;27;20442;-76
2022/06/04 10:13:45;;;;;;;1.80;1.70;;;22.10;99.90;;;;;;5135510;27;20576;-76
2022/06/04 10:16:18;;;;;;;2.50;1.47;;;22.10;99.90;;;;;;5134948;27;20434;-76
2022/06/04 10:18:56;;;;;;;1.80;1.30;;;22.10;99.90;;;;;;5133872;27;21004;-77
2022/06/04 10:21:25;;;;;;;1.40;1.30;;;22.10;99.90;;;;;;5134912;27;20432;-76
2022/06/04 10:23:54;;;;;;;2.03;1.60;;;22.00;99.90;;;;;;5134398;27;20469;-78
2022/06/04 10:26:45;;;;;;;2.07;1.87;;;21.90;99.90;;;;;;5134754;27;20438;-76
2022/06/04 10:29:32;;;;;;;2.57;1.30;;;21.80;99.90;;;;;;5134387;27;20434;-76
2022/06/04 10:32:09;;;;;;;1.23;1.13;;;21.80;99.90;;;;;;5134608;27;20796;-76
2022/06/04 10:34:47;;;;;;;2.00;1.53;;;21.80;99.90;;;;;;5134115;27;20485;-76
2022/06/04 10:37:26;;;;;;;3.23;1.90;;;21.90;99.90;;;;;;5133269;27;20445;-76
2022/06/04 10:40:21;;;;;;;6.40;2.20;;;21.90;99.90;;;;;;5134586;27;20430;-76
2022/06/04 10:42:55;;;;;;;1.93;1.73;;;21.90;99.90;;;;;;5134488;27;20465;-76
2022/06/04 10:45:27;;;;;;;1.90;1.60;;;21.90;99.90;;;;;;5134413;27;20769;-76
2022/06/04 10:48:01;;;;;;;1.70;1.60;;;21.80;99.90;;;;;;5134627;27;20437;-81
2022/06/04 10:51:25;;;;;;;1.57;1.47;;;21.70;99.90;;;;;;5134544;27;20433;-75
2022/06/04 10:53:44;;;;;;;1.93;1.50;;;21.50;99.90;;;;;;5133949;27;20481;-76
2022/06/04 10:56:19;;;;;;;1.93;1.83;;;21.40;99.90;;;;;;5134115;27;20908;-76
2022/06/04 10:58:54;;;;;;;2.10;1.90;;;21.30;99.90;;;;;;5134388;27;20469;-76
2022/06/04 11:01:27;;;;;;;2.10;1.70;;;21.30;99.90;;;;;;5134103;27;20441;-75
2022/06/04 11:04:08;;;;;;;2.30;2.10;;;21.20;99.90;;;;;;5134278;27;20483;-75
2022/06/04 11:06:41;;;;;;;2.40;1.83;;;21.20;99.90;;;;;;5134333;27;20428;-75
2022/06/04 11:09:16;;;;;;;2.97;2.37;;;21.30;99.90;;;;;;5134272;27;20429;-75
2022/06/04 11:11:48;;;;;;;1.50;1.37;;;21.30;99.90;;;;;;5133981;27;20429;-76
2022/06/04 11:14:24;;;;;;;2.30;1.90;;;21.30;99.90;;;;;;5134144;27;20461;-75
2022/06/04 11:16:58;;;;;;;1.73;1.63;;;21.40;99.90;;;;;;5133865;27;20453;-75
2022/06/04 11:19:31;;;;;;;2.40;1.67;;;21.30;99.90;;;;;;5134110;27;20566;-75
2022/06/04 11:22:03;;;;;;;1.70;1.60;;;21.20;99.90;;;;;;5134161;27;20437;-75
2022/06/04 11:24:36;;;;;;;2.30;1.83;;;21.10;99.90;;;;;;5133702;27;20828;-75
2022/06/04 11:27:11;;;;;;;1.97;1.77;;;21.10;99.90;;;;;;5134110;27;20437;-75
2022/06/04 11:29:39;;;;;;;2.10;1.90;;;21.10;99.90;;;;;;5136713;27;20433;-79
2022/06/04 11:32:10;;;;;;;4.10;2.80;;;21.00;99.90;;;;;;5138041;27;20874;-79
2022/06/04 11:35:03;;;;;;;3.77;1.70;;;21.00;99.90;;;;;;5137650;27;20488;-79
2022/06/04 11:37:52;;;;;;;3.33;2.50;;;20.90;99.90;;;;;;5127732;27;20515;-76
2022/06/04 11:40:27;;;;;;;2.77;2.20;;;21.00;99.90;;;;;;5138017;27;20429;-82
2022/06/04 11:42:57;;;;;;;4.07;2.20;;;21.00;99.90;;;;;;5137943;27;20460;-80
2022/06/04 11:45:43;;;;;;;2.80;1.90;;;21.00;99.90;;;;;;5137817;27;20771;-79
2022/06/04 11:48:27;;;;;;;3.10;1.87;;;21.10;99.90;;;;;;5138628;27;20441;-78
2022/06/04 11:51:03;;;;;;;3.03;2.23;;;21.20;99.90;;;;;;5137803;27;20430;-78
2022/06/04 11:53:49;;;;;;;2.03;1.77;;;21.30;99.90;;;;;;5137376;27;20472;-78
2022/06/04 11:56:36;;;;;;;4.23;2.87;;;21.40;99.90;;;;;;5137653;27;20806;-78
2022/06/04 11:59:28;;;;;;;2.83;1.70;;;21.50;99.90;;;;;;5137432;27;20460;-79
2022/06/04 12:01:59;;;;;;;4.50;3.17;;;21.60;99.90;;;;;;5137242;27;20421;-79
2022/06/04 12:04:33;;;;;;;5.20;2.60;;;21.70;99.90;;;;;;5137102;27;21040;-79
2022/06/04 12:07:06;;;;;;;7.60;2.97;;;21.80;99.90;;;;;;5137468;27;20422;-79
2022/06/04 12:09:41;;;;;;;4.10;2.23;;;21.90;99.90;;;;;;5137092;27;20447;-79
2022/06/04 12:12:11;;;;;;;1.93;1.43;;;22.00;99.90;;;;;;5137324;27;20456;-79
2022/06/04 12:14:43;;;;;;;3.17;2.63;;;22.10;99.90;;;;;;5136979;27;20813;-78
2022/06/04 12:17:14;;;;;;;3.83;3.00;;;22.50;99.90;;;;;;5137252;27;20433;-79
2022/06/04 12:25:20;;;;;;;3.90;2.13;;;22.60;99.90;;;;;;5136895;27;20900;-78
2022/06/04 12:27:59;;;;;;;3.23;2.90;;;22.50;99.90;;;;;;5137250;27;20438;-79
2022/06/04 12:30:49;;;;;;;3.17;2.87;;;22.40;99.90;;;;;;5137024;27;20426;-79
2022/06/04 12:33:26;;;;;;;3.07;2.77;;;22.40;99.90;;;;;;5121050;27;20470;-79
2022/06/04 12:36:01;;;;;;;3.27;2.23;;;22.50;99.90;;;;;;5136520;27;20473;-78
2022/06/04 12:38:28;;;;;;;4.80;2.77;;;22.50;99.90;;;;;;5136847;27;20481;-76
2022/06/04 12:41:13;;;;;;;4.90;2.67;;;22.60;99.90;;;;;;5136124;27;20445;-79
2022/06/04 12:43:41;;;;;;;2.80;2.60;;;22.50;99.90;;;;;;5136490;27;20979;-79
2022/06/04 12:46:16;;;;;;;3.80;2.43;;;22.50;99.90;;;;;;5136410;27;20959;-79
2022/06/04 12:49:06;;;;;;;3.20;2.07;;;22.50;99.90;;;;;;5136714;27;20440;-79
2022/06/04 12:51:45;;;;;;;3.73;2.30;;;22.40;99.90;;;;;;5136317;27;20909;-78
2022/06/04 12:54:25;;;;;;;2.57;1.80;;;22.40;99.90;;;;;;5136593;27;20477;-79
2022/06/04 12:56:56;;;;;;;2.70;1.80;;;22.30;99.90;;;;;;5136561;27;20904;-80
2022/06/04 12:59:38;;;;;;;2.87;1.73;;;22.20;99.90;;;;;;5136409;27;20496;-80
2022/06/04 13:02:30;;;;;;;3.10;2.53;;;22.20;99.90;;;;;;5136422;27;20441;-77
2022/06/04 13:05:10;;;;;;;3.23;2.40;;;22.20;99.90;;;;;;5136055;27;20925;-77
2022/06/04 13:07:42;;;;;;;3.33;1.77;;;22.30;99.90;;;;;;5136454;27;20426;-80
2022/06/04 13:10:20;;;;;;;4.63;2.10;;;22.30;99.90;;;;;;5136299;27;20418;-79
2022/06/04 13:12:59;;;;;;;5.17;2.30;;;22.30;99.90;;;;;;5135898;27;20817;-77
2022/06/04 13:15:34;;;;;;;1.83;1.60;;;22.30;99.90;;;;;;5136195;27;20469;-80
2022/06/04 13:18:00;;;;;;;1.70;1.60;;;22.50;99.90;;;;;;5136117;27;20433;-77
2022/06/04 13:20:37;;;;;;;2.73;1.77;;;22.70;99.90;;;;;;5135938;27;20479;-76
2022/06/04 13:23:15;;;;;;;2.20;2.00;;;22.80;99.90;;;;;;5135967;27;20460;-78
2022/06/04 13:25:48;;;;;;;3.30;2.13;;;23.00;99.90;;;;;;5136221;27;20778;-84
2022/06/04 13:28:27;;;;;;;2.20;1.50;;;23.00;99.90;;;;;;5138003;27;20200;-80